sensor_id;sensor_type;location;lat;lon;timestamp;P1;P4;P2;P0;N10;N4;N25;N1;N05;TS
63316;SPS30;49822;41.468;13.560;2023-02-28T00:01:36;168.05;;51.63;;;;;;;
63316;SPS30;49822;41.468;13.560;2023-02-28T00:04:03;49.92;;16.42;;;;;;;
63316;SPS30;49822;41.468;13.560;2023-02-28T00:06:31;38.70;;12.07;;;;;;;
63316;SPS30;49822;41.468;13.560;2023-02-28T00:08:59;66.88;;21.83;;;;;;;
63316;SPS30;49822;41.468;13.560;2023-02-28T00:11:26;88.20;;27.05;;;;;;;
63316;SPS30;49822;41.468;13.560;2023-02-28T00:13:54;79.18;;26.00;;;;;;;
63316;SPS30;49822;41.468;13.560;2023-02-28T00:16:21;27.10;;8.30;;;;;;;
63316;SPS30;49822;41.468;13.560;2023-02-28T00:18:49;13.52;;4.60;;;;;;;
63316;SPS30;49822;41.468;13.560;2023-02-28T00:21:18;8.05;;3.00;;;;;;;
63316;SPS30;49822;41.468;13.560;2023-02-28T00:23:46;7.47;;3.45;;;;;;;
63316;SPS30;49822;41.468;13.560;2023-02-28T00:26:14;8.32;;3.75;;;;;;;
63316;SPS30;49822;41.468;13.560;2023-02-28T00:28:45;7.45;;2.78;;;;;;;
63316;SPS30;49822;41.468;13.560;2023-02-28T00:31:13;4.97;;2.70;;;;;;;
63316;SPS30;49822;41.468;13.560;2023-02-28T00:33:41;8.15;;2.30;;;;;;;
63316;SPS30;49822;41.468;13.560;2023-02-28T00:36:09;3.67;;1.88;;;;;;;
63316;SPS30;49822;41.468;13.560;2023-02-28T00:38:39;4.28;;1.80;;;;;;;
63316;SPS30;49822;41.468;13.560;2023-02-28T00:41:07;4.82;;1.90;;;;;;;
63316;SPS30;49822;41.468;13.560;2023-02-28T00:43:37;3.38;;1.92;;;;;;;
63316;SPS30;49822;41.468;13.560;2023-02-28T00:46:06;2.42;;1.40;;;;;;;
63316;SPS30;49822;41.468;13.560;2023-02-28T00:48:34;3.45;;1.67;;;;;;;
63316;SPS30;49822;41.468;13.560;2023-02-28T00:51:05;3.70;;1.80;;;;;;;
63316;SPS30;49822;41.468;13.560;2023-02-28T00:53:33;2.67;;1.60;;;;;;;
63316;SPS30;49822;41.468;13.560;2023-02-28T00:56:02;3.22;;1.48;;;;;;;
63316;SPS30;49822;41.468;13.560;2023-02-28T00:58:31;3.03;;1.70;;;;;;;
63316;SPS30;49822;41.468;13.560;2023-02-28T01:00:59;2.83;;1.50;;;;;;;
63316;SPS30;49822;41.468;13.560;2023-02-28T01:03:27;4.47;;2.10;;;;;;;
63316;SPS30;49822;41.468;13.560;2023-02-28T01:05:57;4.57;;1.95;;;;;;;
63316;SPS30;49822;41.468;13.560;2023-02-28T01:08:25;4.07;;1.92;;;;;;;
63316;SPS30;49822;41.468;13.560;2023-02-28T01:10:53;2.22;;1.60;;;;;;;
63316;SPS30;49822;41.468;13.560;2023-02-28T01:13:22;2.83;;1.65;;;;;;;
63316;SPS30;49822;41.468;13.560;2023-02-28T01:15:52;4.72;;1.42;;;;;;;
63316;SPS30;49822;41.468;13.560;2023-02-28T01:18:24;2.88;;1.92;;;;;;;
63316;SPS30;49822;41.468;13.560;2023-02-28T01:20:52;3.00;;1.58;;;;;;;
63316;SPS30;49822;41.468;13.560;2023-02-28T01:23:21;3.25;;1.48;;;;;;;
63316;SPS30;49822;41.468;13.560;2023-02-28T01:25:50;2.22;;1.40;;;;;;;
63316;SPS30;49822;41.468;13.560;2023-02-28T01:28:18;3.28;;1.20;;;;;;;
63316;SPS30;49822;41.468;13.560;2023-02-28T01:30:50;2.00;;1.23;;;;;;;
63316;SPS30;49822;41.468;13.560;2023-02-28T01:33:18;1.98;;1.25;;;;;;;
63316;SPS30;49822;41.468;13.560;2023-02-28T01:35:46;3.97;;1.58;;;;;;;
63316;SPS30;49822;41.468;13.560;2023-02-28T01:38:14;2.22;;1.23;;;;;;;
63316;SPS30;49822;41.468;13.560;2023-02-28T01:40:51;2.42;;1.63;;;;;;;
63316;SPS30;49822;41.468;13.560;2023-02-28T01:43:26;3.27;;1.70;;;;;;;
63316;SPS30;49822;41.468;13.560;2023-02-28T01:45:59;16.50;;6.25;;;;;;;
63316;SPS30;49822;41.468;13.560;2023-02-28T01:48:35;57.03;;23.25;;;;;;;
63316;SPS30;49822;41.468;13.560;2023-02-28T01:51:11;85.88;;35.33;;;;;;;
63316;SPS30;49822;41.468;13.560;2023-02-28T01:54:05;51.22;;20.95;;;;;;;
63316;SPS30;49822;41.468;13.560;2023-02-28T01:56:44;148.57;;53.95;;;;;;;
63316;SPS30;49822;41.468;13.560;2023-02-28T01:59:19;4.78;;2.70;;;;;;;
63316;SPS30;49822;41.468;13.560;2023-02-28T02:01:51;3.20;;1.70;;;;;;;
63316;SPS30;49822;41.468;13.560;2023-02-28T02:04:21;5.40;;2.63;;;;;;;
63316;SPS30;49822;41.468;13.560;2023-02-28T02:06:53;18.27;;7.32;;;;;;;
63316;SPS30;49822;41.468;13.560;2023-02-28T02:09:23;124.67;;48.43;;;;;;;
63316;SPS30;49822;41.468;13.560;2023-02-28T02:11:51;73.38;;29.35;;;;;;;
63316;SPS30;49822;41.468;13.560;2023-02-28T02:15:24;85.80;;34.70;;;;;;;
63316;SPS30;49822;41.468;13.560;2023-02-28T02:34:41;3.65;;1.60;;;;;;;
63316;SPS30;49822;41.468;13.560;2023-02-28T02:45:52;2.10;;1.10;;;;;;;
63316;SPS30;49822;41.468;13.560;2023-02-28T02:48:27;3.13;;1.55;;;;;;;
63316;SPS30;49822;41.468;13.560;2023-02-28T02:50:59;7.45;;3.25;;;;;;;
63316;SPS30;49822;41.468;13.560;2023-02-28T02:53:32;6.13;;2.42;;;;;;;
63316;SPS30;49822;41.468;13.560;2023-02-28T02:56:03;2.50;;1.42;;;;;;;
63316;SPS30;49822;41.468;13.560;2023-02-28T02:58:35;2.63;;1.27;;;;;;;
63316;SPS30;49822;41.468;13.560;2023-02-28T03:01:11;4.05;;2.28;;;;;;;
63316;SPS30;49822;41.468;13.560;2023-02-28T03:03:45;5.35;;1.23;;;;;;;
63316;SPS30;49822;41.468;13.560;2023-02-28T03:06:14;2.08;;1.10;;;;;;;
63316;SPS30;49822;41.468;13.560;2023-02-28T03:08:42;1.90;;1.23;;;;;;;
63316;SPS30;49822;41.468;13.560;2023-02-28T03:11:13;1.35;;0.80;;;;;;;
63316;SPS30;49822;41.468;13.560;2023-02-28T03:13:47;1.92;;1.42;;;;;;;
63316;SPS30;49822;41.468;13.560;2023-02-28T03:28:42;3.38;;1.55;;;;;;;
63316;SPS30;49822;41.468;13.560;2023-02-28T03:34:17;5.07;;1.80;;;;;;;
63316;SPS30;49822;41.468;13.560;2023-02-28T03:36:54;3.47;;1.15;;;;;;;
63316;SPS30;49822;41.468;13.560;2023-02-28T03:39:37;1.98;;1.20;;;;;;;
63316;SPS30;49822;41.468;13.560;2023-02-28T03:42:19;4.53;;1.75;;;;;;;
63316;SPS30;49822;41.468;13.560;2023-02-28T03:45:00;2.55;;1.50;;;;;;;
63316;SPS30;49822;41.468;13.560;2023-02-28T03:47:35;6.43;;1.60;;;;;;;
63316;SPS30;49822;41.468;13.560;2023-02-28T03:50:27;2.47;;1.10;;;;;;;
63316;SPS30;49822;41.468;13.560;2023-02-28T03:53:06;2.15;;1.10;;;;;;;
63316;SPS30;49822;41.468;13.560;2023-02-28T03:55:47;5.43;;2.05;;;;;;;
63316;SPS30;49822;41.468;13.560;2023-02-28T03:58:32;2.75;;1.25;;;;;;;
63316;SPS30;49822;41.468;13.560;2023-02-28T04:01:09;2.00;;1.15;;;;;;;
63316;SPS30;49822;41.468;13.560;2023-02-28T04:03:41;8.77;;2.25;;;;;;;
63316;SPS30;49822;41.468;13.560;2023-02-28T04:06:15;3.22;;1.40;;;;;;;
63316;SPS30;49822;41.468;13.560;2023-02-28T04:08:44;2.70;;1.40;;;;;;;
63316;SPS30;49822;41.468;13.560;2023-02-28T04:14:13;2.22;;0.98;;;;;;;
63316;SPS30;49822;41.468;13.560;2023-02-28T04:16:42;2.83;;1.30;;;;;;;
63316;SPS30;49822;41.468;13.560;2023-02-28T04:19:10;2.42;;0.80;;;;;;;
63316;SPS30;49822;41.468;13.560;2023-02-28T04:24:13;2.90;;1.45;;;;;;;
63316;SPS30;49822;41.468;13.560;2023-02-28T04:26:44;0.88;;0.68;;;;;;;
63316;SPS30;49822;41.468;13.560;2023-02-28T04:29:18;1.55;;0.88;;;;;;;
63316;SPS30;49822;41.468;13.560;2023-02-28T04:31:51;2.05;;0.82;;;;;;;
63316;SPS30;49822;41.468;13.560;2023-02-28T04:36:51;1.67;;0.80;;;;;;;
63316;SPS30;49822;41.468;13.560;2023-02-28T04:39:38;1.25;;0.90;;;;;;;
63316;SPS30;49822;41.468;13.560;2023-02-28T04:42:06;1.30;;0.70;;;;;;;
63316;SPS30;49822;41.468;13.560;2023-02-28T04:44:33;1.40;;0.80;;;;;;;
63316;SPS30;49822;41.468;13.560;2023-02-28T04:47:02;3.85;;1.08;;;;;;;
63316;SPS30;49822;41.468;13.560;2023-02-28T04:49:30;0.70;;0.65;;;;;;;
63316;SPS30;49822;41.468;13.560;2023-02-28T04:51:58;1.52;;0.75;;;;;;;
63316;SPS30;49822;41.468;13.560;2023-02-28T04:54:25;1.77;;1.13;;;;;;;
63316;SPS30;49822;41.468;13.560;2023-02-28T04:56:54;1.30;;0.80;;;;;;;
63316;SPS30;49822;41.468;13.560;2023-02-28T04:59:22;3.17;;0.90;;;;;;;
63316;SPS30;49822;41.468;13.560;2023-02-28T05:01:50;1.10;;0.70;;;;;;;
63316;SPS30;49822;41.468;13.560;2023-02-28T05:04:17;4.38;;0.65;;;;;;;
63316;SPS30;49822;41.468;13.560;2023-02-28T05:06:45;3.33;;0.88;;;;;;;
63316;SPS30;49822;41.468;13.560;2023-02-28T05:09:12;2.17;;1.00;;;;;;;
63316;SPS30;49822;41.468;13.560;2023-02-28T05:11:41;2.67;;0.98;;;;;;;
63316;SPS30;49822;41.468;13.560;2023-02-28T05:14:15;5.38;;0.80;;;;;;;
63316;SPS30;49822;41.468;13.560;2023-02-28T05:17:24;1.77;;0.80;;;;;;;
63316;SPS30;49822;41.468;13.560;2023-02-28T05:20:08;2.50;;1.00;;;;;;;
63316;SPS30;49822;41.468;13.560;2023-02-28T05:22:42;1.63;;0.75;;;;;;;
63316;SPS30;49822;41.468;13.560;2023-02-28T05:25:16;6.22;;1.10;;;;;;;
63316;SPS30;49822;41.468;13.560;2023-02-28T05:27:47;3.63;;0.90;;;;;;;
63316;SPS30;49822;41.468;13.560;2023-02-28T05:30:16;4.97;;0.80;;;;;;;
63316;SPS30;49822;41.468;13.560;2023-02-28T05:32:43;1.38;;0.70;;;;;;;
63316;SPS30;49822;41.468;13.560;2023-02-28T05:35:16;1.63;;0.80;;;;;;;
63316;SPS30;49822;41.468;13.560;2023-02-28T05:37:44;2.13;;0.70;;;;;;;
63316;SPS30;49822;41.468;13.560;2023-02-28T05:40:12;2.80;;0.75;;;;;;;
63316;SPS30;49822;41.468;13.560;2023-02-28T05:42:44;2.50;;0.88;;;;;;;
63316;SPS30;49822;41.468;13.560;2023-02-28T05:46:01;2.60;;0.70;;;;;;;
63316;SPS30;49822;41.468;13.560;2023-02-28T05:49:11;2.72;;1.02;;;;;;;
63316;SPS30;49822;41.468;13.560;2023-02-28T05:52:14;2.47;;0.82;;;;;;;
63316;SPS30;49822;41.468;13.560;2023-02-28T05:54:42;1.50;;0.90;;;;;;;
63316;SPS30;49822;41.468;13.560;2023-02-28T05:57:10;1.92;;0.98;;;;;;;
63316;SPS30;49822;41.468;13.560;2023-02-28T05:59:50;1.42;;0.75;;;;;;;
63316;SPS30;49822;41.468;13.560;2023-02-28T06:02:17;2.92;;0.82;;;;;;;
63316;SPS30;49822;41.468;13.560;2023-02-28T06:04:45;2.38;;0.90;;;;;;;
63316;SPS30;49822;41.468;13.560;2023-02-28T06:07:13;2.85;;1.23;;;;;;;
63316;SPS30;49822;41.468;13.560;2023-02-28T06:09:40;2.75;;1.00;;;;;;;
63316;SPS30;49822;41.468;13.560;2023-02-28T06:12:09;3.22;;1.10;;;;;;;
63316;SPS30;49822;41.468;13.560;2023-02-28T06:14:40;2.20;;1.05;;;;;;;
63316;SPS30;49822;41.468;13.560;2023-02-28T06:17:40;2.38;;1.02;;;;;;;
63316;SPS30;49822;41.468;13.560;2023-02-28T06:20:27;1.87;;1.20;;;;;;;
63316;SPS30;49822;41.468;13.560;2023-02-28T06:22:56;2.15;;1.40;;;;;;;
63316;SPS30;49822;41.468;13.560;2023-02-28T06:25:29;2.30;;1.23;;;;;;;
63316;SPS30;49822;41.468;13.560;2023-02-28T06:28:15;4.05;;1.58;;;;;;;
63316;SPS30;49822;41.468;13.560;2023-02-28T06:30:54;1.55;;0.80;;;;;;;
63316;SPS30;49822;41.468;13.560;2023-02-28T06:33:24;2.78;;1.40;;;;;;;
63316;SPS30;49822;41.468;13.560;2023-02-28T06:35:52;2.97;;1.60;;;;;;;
63316;SPS30;49822;41.468;13.560;2023-02-28T06:38:19;2.22;;1.20;;;;;;;
63316;SPS30;49822;41.468;13.560;2023-02-28T06:40:54;1.30;;1.00;;;;;;;
63316;SPS30;49822;41.468;13.560;2023-02-28T06:43:44;1.40;;0.77;;;;;;;
63316;SPS30;49822;41.468;13.560;2023-02-28T06:46:43;4.28;;1.20;;;;;;;
63316;SPS30;49822;41.468;13.560;2023-02-28T06:49:40;3.47;;1.42;;;;;;;
63316;SPS30;49822;41.468;13.560;2023-02-28T06:52:56;1.45;;1.00;;;;;;;
63316;SPS30;49822;41.468;13.560;2023-02-28T06:55:24;2.30;;0.93;;;;;;;
63316;SPS30;49822;41.468;13.560;2023-02-28T06:57:54;2.75;;1.10;;;;;;;
63316;SPS30;49822;41.468;13.560;2023-02-28T07:00:34;2.80;;0.90;;;;;;;
63316;SPS30;49822;41.468;13.560;2023-02-28T07:11:59;2.83;;0.95;;;;;;;
63316;SPS30;49822;41.468;13.560;2023-02-28T07:14:27;1.70;;0.80;;;;;;;
63316;SPS30;49822;41.468;13.560;2023-02-28T07:20:06;2.63;;0.80;;;;;;;
63316;SPS30;49822;41.468;13.560;2023-02-28T07:22:35;0.85;;0.70;;;;;;;
63316;SPS30;49822;41.468;13.560;2023-02-28T07:25:02;3.70;;0.70;;;;;;;
63316;SPS30;49822;41.468;13.560;2023-02-28T07:27:32;3.13;;0.82;;;;;;;
63316;SPS30;49822;41.468;13.560;2023-02-28T07:30:00;1.73;;0.88;;;;;;;
63316;SPS30;49822;41.468;13.560;2023-02-28T07:32:32;1.55;;0.70;;;;;;;
63316;SPS30;49822;41.468;13.560;2023-02-28T07:35:05;3.22;;0.90;;;;;;;
63316;SPS30;49822;41.468;13.560;2023-02-28T07:37:33;4.40;;1.10;;;;;;;
63316;SPS30;49822;41.468;13.560;2023-02-28T07:40:05;3.67;;1.10;;;;;;;
63316;SPS30;49822;41.468;13.560;2023-02-28T07:42:36;2.28;;0.80;;;;;;;
63316;SPS30;49822;41.468;13.560;2023-02-28T07:45:05;5.22;;1.92;;;;;;;
63316;SPS30;49822;41.468;13.560;2023-02-28T07:47:34;3.95;;1.20;;;;;;;
63316;SPS30;49822;41.468;13.560;2023-02-28T07:50:02;2.92;;0.90;;;;;;;
63316;SPS30;49822;41.468;13.560;2023-02-28T07:52:33;1.08;;0.70;;;;;;;
63316;SPS30;49822;41.468;13.560;2023-02-28T07:55:00;5.88;;0.63;;;;;;;
63316;SPS30;49822;41.468;13.560;2023-02-28T07:57:28;1.90;;0.60;;;;;;;
63316;SPS30;49822;41.468;13.560;2023-02-28T08:00:03;2.97;;0.82;;;;;;;
63316;SPS30;49822;41.468;13.560;2023-02-28T08:02:42;37.00;;12.25;;;;;;;
63316;SPS30;49822;41.468;13.560;2023-02-28T08:05:10;6.35;;1.10;;;;;;;
63316;SPS30;49822;41.468;13.560;2023-02-28T08:07:37;3.70;;1.45;;;;;;;
63316;SPS30;49822;41.468;13.560;2023-02-28T08:10:06;2.33;;0.75;;;;;;;
63316;SPS30;49822;41.468;13.560;2023-02-28T08:12:36;2.10;;0.93;;;;;;;
63316;SPS30;49822;41.468;13.560;2023-02-28T08:15:04;1.67;;1.10;;;;;;;
63316;SPS30;49822;41.468;13.560;2023-02-28T08:17:33;1.17;;0.90;;;;;;;
63316;SPS30;49822;41.468;13.560;2023-02-28T08:20:01;1.52;;0.77;;;;;;;
63316;SPS30;49822;41.468;13.560;2023-02-28T08:22:32;4.15;;0.70;;;;;;;
63316;SPS30;49822;41.468;13.560;2023-02-28T08:24:59;5.65;;1.80;;;;;;;
63316;SPS30;49822;41.468;13.560;2023-02-28T08:27:27;4.13;;0.80;;;;;;;
63316;SPS30;49822;41.468;13.560;2023-02-28T08:29:54;2.83;;0.73;;;;;;;
63316;SPS30;49822;41.468;13.560;2023-02-28T08:32:22;1.75;;0.73;;;;;;;
63316;SPS30;49822;41.468;13.560;2023-02-28T08:34:55;2.17;;0.77;;;;;;;
63316;SPS30;49822;41.468;13.560;2023-02-28T08:37:23;1.58;;0.60;;;;;;;
63316;SPS30;49822;41.468;13.560;2023-02-28T08:39:51;2.50;;0.80;;;;;;;
63316;SPS30;49822;41.468;13.560;2023-02-28T08:42:22;2.63;;1.00;;;;;;;
63316;SPS30;49822;41.468;13.560;2023-02-28T08:44:50;1.50;;0.80;;;;;;;
63316;SPS30;49822;41.468;13.560;2023-02-28T08:47:18;5.15;;0.93;;;;;;;
63316;SPS30;49822;41.468;13.560;2023-02-28T08:49:46;2.45;;0.80;;;;;;;
63316;SPS30;49822;41.468;13.560;2023-02-28T08:52:14;4.25;;1.73;;;;;;;
63316;SPS30;49822;41.468;13.560;2023-02-28T08:54:41;1.92;;0.80;;;;;;;
63316;SPS30;49822;41.468;13.560;2023-02-28T08:57:14;1.02;;0.80;;;;;;;
63316;SPS30;49822;41.468;13.560;2023-02-28T08:59:41;3.40;;1.90;;;;;;;
63316;SPS30;49822;41.468;13.560;2023-02-28T09:02:12;1.90;;0.80;;;;;;;
63316;SPS30;49822;41.468;13.560;2023-02-28T09:04:40;2.33;;0.90;;;;;;;
63316;SPS30;49822;41.468;13.560;2023-02-28T09:07:08;2.75;;0.98;;;;;;;
63316;SPS30;49822;41.468;13.560;2023-02-28T09:09:35;1.85;;0.80;;;;;;;
63316;SPS30;49822;41.468;13.560;2023-02-28T09:12:03;6.00;;0.80;;;;;;;
63316;SPS30;49822;41.468;13.560;2023-02-28T09:14:31;3.72;;1.20;;;;;;;
63316;SPS30;49822;41.468;13.560;2023-02-28T09:16:59;2.28;;1.00;;;;;;;
63316;SPS30;49822;41.468;13.560;2023-02-28T09:19:26;3.53;;1.00;;;;;;;
63316;SPS30;49822;41.468;13.560;2023-02-28T09:21:54;5.90;;1.08;;;;;;;
63316;SPS30;49822;41.468;13.560;2023-02-28T09:24:21;5.90;;1.73;;;;;;;
63316;SPS30;49822;41.468;13.560;2023-02-28T09:26:49;2.75;;1.05;;;;;;;
63316;SPS30;49822;41.468;13.560;2023-02-28T09:29:30;4.03;;0.70;;;;;;;
63316;SPS30;49822;41.468;13.560;2023-02-28T09:31:59;3.53;;0.88;;;;;;;
63316;SPS30;49822;41.468;13.560;2023-02-28T09:34:27;4.40;;1.10;;;;;;;
63316;SPS30;49822;41.468;13.560;2023-02-28T09:36:57;3.72;;1.02;;;;;;;
63316;SPS30;49822;41.468;13.560;2023-02-28T09:39:25;4.05;;1.40;;;;;;;
63316;SPS30;49822;41.468;13.560;2023-02-28T09:41:53;2.70;;1.02;;;;;;;
63316;SPS30;49822;41.468;13.560;2023-02-28T09:47:20;3.45;;0.60;;;;;;;
63316;SPS30;49822;41.468;13.560;2023-02-28T09:50:03;9.50;;0.90;;;;;;;
63316;SPS30;49822;41.468;13.560;2023-02-28T09:52:50;3.83;;0.93;;;;;;;
63316;SPS30;49822;41.468;13.560;2023-02-28T09:58:33;2.97;;0.93;;;;;;;
63316;SPS30;49822;41.468;13.560;2023-02-28T10:04:08;3.53;;0.60;;;;;;;
63316;SPS30;49822;41.468;13.560;2023-02-28T10:06:59;2.00;;0.60;;;;;;;
63316;SPS30;49822;41.468;13.560;2023-02-28T10:09:33;5.05;;1.20;;;;;;;
63316;SPS30;49822;41.468;13.560;2023-02-28T10:12:05;6.57;;1.38;;;;;;;
63316;SPS30;49822;41.468;13.560;2023-02-28T10:14:36;2.92;;0.82;;;;;;;
63316;SPS30;49822;41.468;13.560;2023-02-28T10:17:13;3.63;;1.13;;;;;;;
63316;SPS30;49822;41.468;13.560;2023-02-28T10:22:45;5.80;;1.40;;;;;;;
63316;SPS30;49822;41.468;13.560;2023-02-28T10:25:35;2.70;;1.08;;;;;;;
63316;SPS30;49822;41.468;13.560;2023-02-28T10:28:14;4.15;;0.98;;;;;;;
63316;SPS30;49822;41.468;13.560;2023-02-28T10:30:48;4.18;;1.10;;;;;;;
63316;SPS30;49822;41.468;13.560;2023-02-28T10:33:25;6.78;;1.10;;;;;;;
63316;SPS30;49822;41.468;13.560;2023-02-28T10:35:58;6.78;;1.13;;;;;;;
63316;SPS30;49822;41.468;13.560;2023-02-28T10:38:26;6.28;;1.42;;;;;;;
63316;SPS30;49822;41.468;13.560;2023-02-28T10:41:12;3.88;;1.02;;;;;;;
63316;SPS30;49822;41.468;13.560;2023-02-28T10:44:12;6.70;;1.17;;;;;;;
63316;SPS30;49822;41.468;13.560;2023-02-28T10:46:50;4.18;;1.08;;;;;;;
63316;SPS30;49822;41.468;13.560;2023-02-28T10:49:25;3.22;;1.02;;;;;;;
63316;SPS30;49822;41.468;13.560;2023-02-28T10:51:59;5.05;;1.02;;;;;;;
63316;SPS30;49822;41.468;13.560;2023-02-28T10:54:34;10.40;;1.80;;;;;;;
63316;SPS30;49822;41.468;13.560;2023-02-28T10:57:17;4.28;;1.58;;;;;;;
63316;SPS30;49822;41.468;13.560;2023-02-28T10:59:50;2.17;;1.20;;;;;;;
63316;SPS30;49822;41.468;13.560;2023-02-28T11:05:25;5.68;;0.95;;;;;;;
63316;SPS30;49822;41.468;13.560;2023-02-28T11:07:54;3.30;;0.88;;;;;;;
63316;SPS30;49822;41.468;13.560;2023-02-28T11:10:25;2.53;;1.02;;;;;;;
63316;SPS30;49822;41.468;13.560;2023-02-28T11:12:57;4.53;;1.05;;;;;;;
63316;SPS30;49822;41.468;13.560;2023-02-28T11:15:28;10.82;;1.05;;;;;;;
63316;SPS30;49822;41.468;13.560;2023-02-28T11:18:15;8.23;;1.30;;;;;;;
63316;SPS30;49822;41.468;13.560;2023-02-28T11:20:50;6.43;;1.05;;;;;;;
63316;SPS30;49822;41.468;13.560;2023-02-28T11:23:19;2.63;;0.75;;;;;;;
63316;SPS30;49822;41.468;13.560;2023-02-28T11:25:49;9.05;;1.30;;;;;;;
63316;SPS30;49822;41.468;13.560;2023-02-28T11:28:28;2.90;;0.90;;;;;;;
63316;SPS30;49822;41.468;13.560;2023-02-28T11:33:44;3.60;;0.70;;;;;;;
63316;SPS30;49822;41.468;13.560;2023-02-28T11:36:14;7.50;;1.38;;;;;;;
63316;SPS30;49822;41.468;13.560;2023-02-28T11:38:47;7.43;;1.98;;;;;;;
63316;SPS30;49822;41.468;13.560;2023-02-28T11:47:19;4.00;;1.27;;;;;;;
63316;SPS30;49822;41.468;13.560;2023-02-28T11:56:14;3.28;;1.45;;;;;;;
63316;SPS30;49822;41.468;13.560;2023-02-28T11:59:00;7.22;;1.67;;;;;;;
63316;SPS30;49822;41.468;13.560;2023-02-28T12:02:05;11.05;;1.85;;;;;;;
63316;SPS30;49822;41.468;13.560;2023-02-28T12:04:49;7.13;;1.40;;;;;;;
63316;SPS30;49822;41.468;13.560;2023-02-28T12:10:42;7.13;;1.70;;;;;;;
63316;SPS30;49822;41.468;13.560;2023-02-28T12:23:59;7.55;;1.30;;;;;;;
63316;SPS30;49822;41.468;13.560;2023-02-28T12:26:40;9.18;;1.95;;;;;;;
63316;SPS30;49822;41.468;13.560;2023-02-28T12:29:12;9.23;;2.10;;;;;;;
63316;SPS30;49822;41.468;13.560;2023-02-28T12:31:55;12.75;;1.85;;;;;;;
63316;SPS30;49822;41.468;13.560;2023-02-28T12:34:36;6.50;;1.33;;;;;;;
63316;SPS30;49822;41.468;13.560;2023-02-28T12:37:13;12.02;;2.28;;;;;;;
63316;SPS30;49822;41.468;13.560;2023-02-28T12:39:48;8.20;;1.80;;;;;;;
63316;SPS30;49822;41.468;13.560;2023-02-28T12:42:31;9.02;;2.10;;;;;;;
63316;SPS30;49822;41.468;13.560;2023-02-28T12:48:28;8.32;;1.52;;;;;;;
63316;SPS30;49822;41.468;13.560;2023-02-28T12:51:17;7.28;;2.45;;;;;;;
63316;SPS30;49822;41.468;13.560;2023-02-28T12:59:22;11.73;;2.28;;;;;;;
63316;SPS30;49822;41.468;13.560;2023-02-28T13:07:42;6.35;;2.03;;;;;;;
63316;SPS30;49822;41.468;13.560;2023-02-28T13:17:38;7.50;;3.45;;;;;;;
63316;SPS30;49822;41.468;13.560;2023-02-28T13:20:20;11.90;;2.97;;;;;;;
63316;SPS30;49822;41.468;13.560;2023-02-28T13:23:02;11.30;;1.98;;;;;;;
63316;SPS30;49822;41.468;13.560;2023-02-28T13:28:09;5.50;;1.75;;;;;;;
63316;SPS30;49822;41.468;13.560;2023-02-28T13:39:11;7.40;;2.53;;;;;;;
63316;SPS30;49822;41.468;13.560;2023-02-28T13:42:35;14.02;;2.15;;;;;;;
63316;SPS30;49822;41.468;13.560;2023-02-28T13:45:25;7.95;;2.40;;;;;;;
63316;SPS30;49822;41.468;13.560;2023-02-28T13:48:15;7.68;;1.70;;;;;;;
63316;SPS30;49822;41.468;13.560;2023-02-28T13:50:51;11.93;;2.15;;;;;;;
63316;SPS30;49822;41.468;13.560;2023-02-28T13:53:33;6.55;;1.85;;;;;;;
63316;SPS30;49822;41.468;13.560;2023-02-28T14:09:35;6.25;;2.30;;;;;;;
63316;SPS30;49822;41.468;13.560;2023-02-28T14:16:20;13.73;;2.58;;;;;;;
63316;SPS30;49822;41.468;13.560;2023-02-28T14:18:50;5.63;;2.05;;;;;;;
63316;SPS30;49822;41.468;13.560;2023-02-28T14:21:29;5.32;;2.13;;;;;;;
63316;SPS30;49822;41.468;13.560;2023-02-28T14:27:16;4.05;;2.05;;;;;;;
63316;SPS30;49822;41.468;13.560;2023-02-28T14:33:27;4.07;;1.80;;;;;;;
63316;SPS30;49822;41.468;13.560;2023-02-28T14:36:51;9.88;;2.35;;;;;;;
63316;SPS30;49822;41.468;13.560;2023-02-28T14:39:53;7.60;;2.53;;;;;;;
63316;SPS30;49822;41.468;13.560;2023-02-28T14:42:31;5.80;;1.70;;;;;;;
63316;SPS30;49822;41.468;13.560;2023-02-28T14:45:05;8.38;;2.33;;;;;;;
63316;SPS30;49822;41.468;13.560;2023-02-28T14:47:33;6.78;;2.25;;;;;;;
63316;SPS30;49822;41.468;13.560;2023-02-28T14:50:03;7.07;;1.70;;;;;;;
63316;SPS30;49822;41.468;13.560;2023-02-28T14:52:32;3.67;;1.75;;;;;;;
63316;SPS30;49822;41.468;13.560;2023-02-28T14:55:06;7.97;;2.35;;;;;;;
63316;SPS30;49822;41.468;13.560;2023-02-28T14:57:52;7.78;;2.50;;;;;;;
63316;SPS30;49822;41.468;13.560;2023-02-28T15:00:30;4.97;;1.92;;;;;;;
63316;SPS30;49822;41.468;13.560;2023-02-28T15:03:20;12.35;;7.35;;;;;;;
63316;SPS30;49822;41.468;13.560;2023-02-28T15:06:03;6.57;;2.80;;;;;;;
63316;SPS30;49822;41.468;13.560;2023-02-28T15:08:33;4.00;;2.17;;;;;;;
63316;SPS30;49822;41.468;13.560;2023-02-28T15:11:12;4.22;;2.15;;;;;;;
63316;SPS30;49822;41.468;13.560;2023-02-28T15:13:44;7.45;;2.72;;;;;;;
63316;SPS30;49822;41.468;13.560;2023-02-28T15:16:17;14.93;;4.82;;;;;;;
63316;SPS30;49822;41.468;13.560;2023-02-28T15:19:04;5.78;;2.47;;;;;;;
63316;SPS30;49822;41.468;13.560;2023-02-28T15:21:43;6.55;;2.70;;;;;;;
63316;SPS30;49822;41.468;13.560;2023-02-28T15:26:52;6.15;;2.67;;;;;;;
63316;SPS30;49822;41.468;13.560;2023-02-28T15:29:27;3.05;;2.00;;;;;;;
63316;SPS30;49822;41.468;13.560;2023-02-28T15:32:02;4.53;;2.70;;;;;;;
63316;SPS30;49822;41.468;13.560;2023-02-28T15:34:36;3.88;;2.00;;;;;;;
63316;SPS30;49822;41.468;13.560;2023-02-28T15:40:43;4.50;;2.05;;;;;;;
63316;SPS30;49822;41.468;13.560;2023-02-28T15:45:46;8.93;;3.03;;;;;;;
63316;SPS30;49822;41.468;13.560;2023-02-28T15:51:19;4.00;;2.58;;;;;;;
63316;SPS30;49822;41.468;13.560;2023-02-28T15:56:32;9.48;;2.85;;;;;;;
63316;SPS30;49822;41.468;13.560;2023-02-28T15:59:07;3.45;;2.13;;;;;;;
63316;SPS30;49822;41.468;13.560;2023-02-28T16:08:26;5.35;;2.55;;;;;;;
63316;SPS30;49822;41.468;13.560;2023-02-28T16:10:54;5.43;;1.88;;;;;;;
63316;SPS30;49822;41.468;13.560;2023-02-28T16:13:22;4.13;;1.75;;;;;;;
63316;SPS30;49822;41.468;13.560;2023-02-28T16:15:52;7.18;;2.08;;;;;;;
63316;SPS30;49822;41.468;13.560;2023-02-28T16:18:20;5.30;;1.60;;;;;;;
63316;SPS30;49822;41.468;13.560;2023-02-28T16:20:48;3.95;;1.85;;;;;;;
63316;SPS30;49822;41.468;13.560;2023-02-28T16:23:16;8.23;;2.75;;;;;;;
63316;SPS30;49822;41.468;13.560;2023-02-28T16:25:44;6.55;;2.65;;;;;;;
63316;SPS30;49822;41.468;13.560;2023-02-28T16:28:23;3.75;;1.38;;;;;;;
63316;SPS30;49822;41.468;13.560;2023-02-28T16:31:49;4.03;;1.48;;;;;;;
63316;SPS30;49822;41.468;13.560;2023-02-28T16:34:46;35.20;;29.60;;;;;;;
63316;SPS30;49822;41.468;13.560;2023-02-28T16:38:03;1.88;;1.63;;;;;;;
63316;SPS30;49822;41.468;13.560;2023-02-28T16:40:33;6.20;;2.47;;;;;;;
63316;SPS30;49822;41.468;13.560;2023-02-28T16:43:04;4.88;;1.83;;;;;;;
63316;SPS30;49822;41.468;13.560;2023-02-28T16:45:40;4.45;;1.48;;;;;;;
63316;SPS30;49822;41.468;13.560;2023-02-28T16:48:14;4.15;;1.50;;;;;;;
63316;SPS30;49822;41.468;13.560;2023-02-28T16:50:43;5.03;;1.33;;;;;;;
63316;SPS30;49822;41.468;13.560;2023-02-28T16:53:11;2.55;;1.58;;;;;;;
63316;SPS30;49822;41.468;13.560;2023-02-28T16:55:43;3.13;;1.20;;;;;;;
63316;SPS30;49822;41.468;13.560;2023-02-28T16:58:15;3.38;;1.45;;;;;;;
63316;SPS30;49822;41.468;13.560;2023-02-28T17:01:14;5.10;;1.50;;;;;;;
63316;SPS30;49822;41.468;13.560;2023-02-28T17:04:10;2.95;;1.38;;;;;;;
63316;SPS30;49822;41.468;13.560;2023-02-28T17:07:11;4.18;;1.13;;;;;;;
63316;SPS30;49822;41.468;13.560;2023-02-28T17:09:55;2.83;;0.98;;;;;;;
63316;SPS30;49822;41.468;13.560;2023-02-28T17:12:23;2.72;;1.00;;;;;;;
63316;SPS30;49822;41.468;13.560;2023-02-28T17:14:51;1.88;;1.17;;;;;;;
63316;SPS30;49822;41.468;13.560;2023-02-28T17:17:20;3.25;;1.40;;;;;;;
63316;SPS30;49822;41.468;13.560;2023-02-28T17:19:48;2.08;;1.38;;;;;;;
63316;SPS30;49822;41.468;13.560;2023-02-28T17:22:16;2.70;;1.77;;;;;;;
63316;SPS30;49822;41.468;13.560;2023-02-28T17:24:44;2.55;;1.48;;;;;;;
63316;SPS30;49822;41.468;13.560;2023-02-28T17:27:12;2.15;;1.52;;;;;;;
63316;SPS30;49822;41.468;13.560;2023-02-28T17:29:39;0.98;;0.80;;;;;;;
63316;SPS30;49822;41.468;13.560;2023-02-28T17:32:08;2.13;;1.23;;;;;;;
63316;SPS30;49822;41.468;13.560;2023-02-28T17:34:43;1.45;;0.70;;;;;;;
63316;SPS30;49822;41.468;13.560;2023-02-28T17:37:12;2.08;;1.20;;;;;;;
63316;SPS30;49822;41.468;13.560;2023-02-28T17:39:40;2.58;;1.52;;;;;;;